sensor_id;sensor_type;location;lat;lon;timestamp;P1;durP1;ratioP1;P2;durP2;ratioP2
50651;SDS011;61429;52.086;5.240;2022-11-20T06:23:34;17.8;;;15.0;;
50651;SDS011;61429;52.086;5.240;2022-11-20T06:25:12;16.8;;;14.5;;
50651;SDS011;61429;52.086;5.240;2022-11-20T06:28:25;15.9;;;13.4;;
50651;SDS011;61429;52.086;5.240;2022-11-20T06:30:01;16.9;;;14.1;;
50651;SDS011;61429;52.086;5.240;2022-11-20T06:31:39;16.61;;;14.6;;
50651;SDS011;61429;52.086;5.240;2022-11-20T06:34:51;16.61;;;14.1;;
50651;SDS011;61429;52.086;5.240;2022-11-20T06:36:27;16.5;;;14.2;;
50651;SDS011;61429;52.086;5.240;2022-11-20T06:38:03;15.6;;;13.5;;
50651;SDS011;61429;52.086;5.240;2022-11-20T06:41:19;16.4;;;14.6;;
50651;SDS011;61429;52.086;5.240;2022-11-20T06:42:57;16.61;;;14.3;;
50651;SDS011;61429;52.086;5.240;2022-11-20T06:44:33;18.11;;;14.7;;
50651;SDS011;61429;52.086;5.240;2022-11-20T06:46:10;16.2;;;13.8;;
50651;SDS011;61429;52.086;5.240;2022-11-20T06:49:25;19.11;;;15.1;;
50651;SDS011;61429;52.086;5.240;2022-11-20T06:51:02;16.3;;;13.5;;
50651;SDS011;61429;52.086;5.240;2022-11-20T06:52:39;17.5;;;14.4;;
50651;SDS011;61429;52.086;5.240;2022-11-20T06:55:52;15.9;;;13.8;;
50651;SDS011;61429;52.086;5.240;2022-11-20T06:57:32;16.7;;;13.8;;
50651;SDS011;61429;52.086;5.240;2022-11-20T06:59:08;15.8;;;13.4;;
50651;SDS011;61429;52.086;5.240;2022-11-20T07:00:44;15.8;;;14.1;;
50651;SDS011;61429;52.086;5.240;2022-11-20T07:03:57;16.61;;;14.8;;
50651;SDS011;61429;52.086;5.240;2022-11-20T07:05:33;15.9;;;13.7;;
50651;SDS011;61429;52.086;5.240;2022-11-20T07:07:10;16.9;;;14.3;;
50651;SDS011;61429;52.086;5.240;2022-11-20T07:10:23;17.5;;;14.4;;
50651;SDS011;61429;52.086;5.240;2022-11-20T07:12:00;18.0;;;14.4;;
50651;SDS011;61429;52.086;5.240;2022-11-20T07:13:36;16.5;;;14.2;;
50651;SDS011;61429;52.086;5.240;2022-11-20T07:16:48;17.61;;;14.5;;
50651;SDS011;61429;52.086;5.240;2022-11-20T07:18:26;17.0;;;14.4;;
50651;SDS011;61429;52.086;5.240;2022-11-20T07:20:02;16.5;;;14.3;;
50651;SDS011;61429;52.086;5.240;2022-11-20T07:21:38;16.8;;;14.7;;
50651;SDS011;61429;52.086;5.240;2022-11-20T07:24:50;17.41;;;14.7;;
50651;SDS011;61429;52.086;5.240;2022-11-20T07:26:26;15.7;;;13.7;;
50651;SDS011;61429;52.086;5.240;2022-11-20T07:28:03;17.7;;;14.4;;
50651;SDS011;61429;52.086;5.240;2022-11-20T07:31:16;16.11;;;13.7;;
50651;SDS011;61429;52.086;5.240;2022-11-20T07:32:52;16.0;;;14.1;;
50651;SDS011;61429;52.086;5.240;2022-11-20T07:34:31;16.61;;;13.7;;
50651;SDS011;61429;52.086;5.240;2022-11-20T07:37:45;16.0;;;13.9;;
50651;SDS011;61429;52.086;5.240;2022-11-20T07:39:22;16.61;;;14.5;;
50651;SDS011;61429;52.086;5.240;2022-11-20T07:41:01;15.9;;;14.2;;
50651;SDS011;61429;52.086;5.240;2022-11-20T07:45:50;19.5;;;15.4;;
50651;SDS011;61429;52.086;5.240;2022-11-20T07:47:28;18.11;;;15.2;;
50651;SDS011;61429;52.086;5.240;2022-11-20T07:49:05;18.3;;;15.0;;
50651;SDS011;61429;52.086;5.240;2022-11-20T07:52:17;18.2;;;15.1;;
50651;SDS011;61429;52.086;5.240;2022-11-20T07:53:53;16.7;;;14.7;;
50651;SDS011;61429;52.086;5.240;2022-11-20T07:55:29;17.61;;;15.4;;
50651;SDS011;61429;52.086;5.240;2022-11-20T07:58:43;17.3;;;15.2;;
50651;SDS011;61429;52.086;5.240;2022-11-20T08:00:19;16.7;;;14.9;;
50651;SDS011;61429;52.086;5.240;2022-11-20T08:01:55;17.0;;;15.2;;
50651;SDS011;61429;52.086;5.240;2022-11-20T08:03:32;17.41;;;14.9;;
50651;SDS011;61429;52.086;5.240;2022-11-20T08:06:46;17.61;;;15.1;;
50651;SDS011;61429;52.086;5.240;2022-11-20T08:08:22;18.5;;;15.7;;
50651;SDS011;61429;52.086;5.240;2022-11-20T08:09:58;17.7;;;15.4;;
50651;SDS011;61429;52.086;5.240;2022-11-20T08:15:47;18.2;;;15.5;;
50651;SDS011;61429;52.086;5.240;2022-11-20T08:17:25;19.0;;;16.0;;
50651;SDS011;61429;52.086;5.240;2022-11-20T08:19:01;18.61;;;16.3;;
50651;SDS011;61429;52.086;5.240;2022-11-20T08:20:37;17.41;;;15.5;;
50651;SDS011;61429;52.086;5.240;2022-11-20T08:23:51;19.11;;;16.11;;
50651;SDS011;61429;52.086;5.240;2022-11-20T08:25:28;19.8;;;16.8;;
50651;SDS011;61429;52.086;5.240;2022-11-20T08:27:05;19.0;;;15.8;;
50651;SDS011;61429;52.086;5.240;2022-11-20T08:28:42;17.8;;;15.6;;
50651;SDS011;61429;52.086;5.240;2022-11-20T08:31:54;18.8;;;16.5;;
50651;SDS011;61429;52.086;5.240;2022-11-20T08:33:32;20.41;;;16.8;;
50651;SDS011;61429;52.086;5.240;2022-11-20T08:35:08;21.1;;;17.3;;
50651;SDS011;61429;52.086;5.240;2022-11-20T08:38:21;21.4;;;18.0;;
50651;SDS011;61429;52.086;5.240;2022-11-20T08:39:57;21.4;;;17.3;;
50651;SDS011;61429;52.086;5.240;2022-11-20T08:41:33;21.7;;;17.8;;
50651;SDS011;61429;52.086;5.240;2022-11-20T08:44:46;21.2;;;18.3;;
50651;SDS011;61429;52.086;5.240;2022-11-20T08:46:22;21.0;;;17.8;;
50651;SDS011;61429;52.086;5.240;2022-11-20T08:48:01;20.6;;;17.7;;
50651;SDS011;61429;52.086;5.240;2022-11-20T08:49:37;21.6;;;18.41;;
50651;SDS011;61429;52.086;5.240;2022-11-20T08:52:51;21.5;;;18.41;;
50651;SDS011;61429;52.086;5.240;2022-11-20T08:54:27;21.3;;;18.61;;
50651;SDS011;61429;52.086;5.240;2022-11-20T08:56:03;21.2;;;18.41;;
50651;SDS011;61429;52.086;5.240;2022-11-20T08:59:17;20.9;;;18.3;;
50651;SDS011;61429;52.086;5.240;2022-11-20T09:00:53;21.6;;;18.11;;
50651;SDS011;61429;52.086;5.240;2022-11-20T09:02:30;21.0;;;18.0;;
50651;SDS011;61429;52.086;5.240;2022-11-20T09:04:06;21.4;;;18.3;;
50651;SDS011;61429;52.086;5.240;2022-11-20T09:07:19;19.3;;;17.2;;
50651;SDS011;61429;52.086;5.240;2022-11-20T09:08:55;21.4;;;17.91;;
50651;SDS011;61429;52.086;5.240;2022-11-20T09:10:32;19.61;;;17.5;;
50651;SDS011;61429;52.086;5.240;2022-11-20T09:13:44;22.8;;;18.61;;
50651;SDS011;61429;52.086;5.240;2022-11-20T09:15:21;21.6;;;18.3;;
50651;SDS011;61429;52.086;5.240;2022-11-20T09:16:59;21.6;;;18.3;;
50651;SDS011;61429;52.086;5.240;2022-11-20T09:20:13;20.0;;;17.8;;
50651;SDS011;61429;52.086;5.240;2022-11-20T09:21:50;20.8;;;17.91;;
50651;SDS011;61429;52.086;5.240;2022-11-20T09:23:27;23.5;;;18.91;;
50651;SDS011;61429;52.086;5.240;2022-11-20T09:25:08;22.3;;;18.0;;
50651;SDS011;61429;52.086;5.240;2022-11-20T09:28:21;21.6;;;18.7;;
50651;SDS011;61429;52.086;5.240;2022-11-20T09:29:57;22.4;;;18.11;;
50651;SDS011;61429;52.086;5.240;2022-11-20T09:31:33;20.6;;;18.41;;
50651;SDS011;61429;52.086;5.240;2022-11-20T09:34:45;22.5;;;18.3;;
50651;SDS011;61429;52.086;5.240;2022-11-20T09:36:22;22.4;;;18.91;;
50651;SDS011;61429;52.086;5.240;2022-11-20T09:37:58;22.0;;;18.5;;
50651;SDS011;61429;52.086;5.240;2022-11-20T09:41:24;23.6;;;19.0;;
50651;SDS011;61429;52.086;5.240;2022-11-20T09:43:23;21.5;;;18.91;;
